Time;durP1;ratioP1;P1;durP2;ratioP2;P2;SDS_P1;SDS_P2;PMS_P1;PMS_P2;Temp;Humidity;BMP_temperature;BMP_pressure;BME280_temperature;BME280_humidity;BME280_pressure;Samples;Min_cycle;Max_cycle;Signal;HPM_P1;HPM_P2
2021/10/01 00:01:55;;;;;;;2.53;1.40;;;9.40;78.50;;;;;;6178731;28;20925;-80
2021/10/01 00:05:00;;;;;;;3.65;1.80;;;9.40;78.60;;;;;;6178551;28;20900;-79
2021/10/01 00:08:01;;;;;;;2.67;1.63;;;9.40;78.50;;;;;;6177319;28;20451;-79
2021/10/01 00:11:03;;;;;;;2.53;1.50;;;9.30;78.60;;;;;;6159557;28;20458;-79
2021/10/01 00:14:05;;;;;;;2.45;1.45;;;9.30;78.60;;;;;;6154243;28;20446;-80
2021/10/01 00:17:09;;;;;;;1.73;1.52;;;9.30;78.60;;;;;;6154252;28;20414;-80
2021/10/01 00:20:12;;;;;;;3.58;1.70;;;9.30;78.40;;;;;;6153855;28;20946;-80
2021/10/01 00:23:15;;;;;;;3.78;2.00;;;9.20;78.60;;;;;;6153582;28;21067;-79
2021/10/01 00:26:16;;;;;;;2.65;1.67;;;9.20;79.50;;;;;;6157553;28;20513;-81
2021/10/01 00:29:18;;;;;;;6.13;1.77;;;9.10;78.60;;;;;;6158454;28;20480;-81
2021/10/01 00:32:20;;;;;;;6.07;2.10;;;9.10;79.00;;;;;;6160009;28;20509;-82
2021/10/01 00:35:23;;;;;;;3.67;1.98;;;9.00;79.00;;;;;;6158827;28;20449;-81
2021/10/01 00:38:25;;;;;;;1.60;1.30;;;9.00;78.90;;;;;;6159100;28;20595;-80
2021/10/01 00:41:28;;;;;;;2.92;1.65;;;9.00;78.70;;;;;;6158136;28;20470;-81
2021/10/01 00:44:30;;;;;;;5.00;2.80;;;9.00;79.00;;;;;;6159586;28;20441;-81
2021/10/01 00:47:31;;;;;;;2.70;1.40;;;9.00;79.10;;;;;;6159208;28;20434;-81
2021/10/01 00:50:35;;;;;;;1.92;1.52;;;8.90;78.90;;;;;;6160135;28;20679;-82
2021/10/01 00:53:37;;;;;;;2.10;1.45;;;8.90;79.00;;;;;;6160924;28;20429;-81
2021/10/01 00:56:39;;;;;;;2.55;2.00;;;8.90;79.00;;;;;;6161299;28;20959;-82
2021/10/01 00:59:41;;;;;;;2.50;1.90;;;8.90;79.10;;;;;;6161571;28;20461;-81
2021/10/01 01:02:43;;;;;;;7.18;1.80;;;9.00;79.30;;;;;;6161897;28;20449;-81
2021/10/01 01:06:01;;;;;;;2.70;1.50;;;9.00;79.00;;;;;;6161224;28;20481;-81
2021/10/01 01:09:10;;;;;;;3.13;1.60;;;9.00;79.50;;;;;;6159923;28;20978;-82
2021/10/01 01:12:24;;;;;;;3.15;1.30;;;9.00;77.90;;;;;;6160468;28;20442;-79
2021/10/01 01:15:30;;;;;;;4.60;2.00;;;8.90;78.60;;;;;;6165693;28;20422;-81
2021/10/01 01:18:35;;;;;;;2.97;1.70;;;9.00;78.80;;;;;;6155767;28;20426;-80
2021/10/01 01:21:54;;;;;;;3.75;2.25;;;8.90;78.70;;;;;;6154012;28;20454;-80
2021/10/01 01:25:23;;;;;;;2.15;1.65;;;8.90;78.90;;;;;;6154210;28;20493;-81
2021/10/01 01:28:36;;;;;;;1.58;1.30;;;9.00;79.50;;;;;;6154231;28;20525;-82
2021/10/01 01:31:46;;;;;;;4.80;1.23;;;8.90;78.30;;;;;;6154186;28;20931;-81
2021/10/01 01:34:54;;;;;;;6.75;1.67;;;8.80;78.70;;;;;;6154099;28;20497;-81
2021/10/01 01:37:59;;;;;;;3.47;1.55;;;8.80;78.70;;;;;;6153567;28;20430;-80
2021/10/01 01:41:03;;;;;;;4.65;1.85;;;8.70;78.50;;;;;;6153558;28;20517;-80
2021/10/01 01:44:09;;;;;;;3.33;2.53;;;8.70;79.20;;;;;;6153081;28;20974;-81
2021/10/01 01:47:12;;;;;;;4.18;1.63;;;8.60;79.50;;;;;;6152838;28;20424;-81
2021/10/01 01:50:16;;;;;;;3.40;1.70;;;8.60;79.00;;;;;;6153538;28;20509;-82
2021/10/01 01:53:19;;;;;;;2.72;1.85;;;8.50;78.80;;;;;;6154033;28;20421;-81
2021/10/01 01:56:22;;;;;;;3.17;1.60;;;8.50;78.70;;;;;;6153210;28;20445;-82
2021/10/01 01:59:27;;;;;;;2.58;1.45;;;8.40;78.70;;;;;;6154186;28;20481;-81
2021/10/01 02:02:29;;;;;;;3.73;1.67;;;8.40;79.00;;;;;;6153495;28;20425;-81
2021/10/01 02:05:33;;;;;;;3.20;1.75;;;8.30;78.50;;;;;;6155430;28;20550;-80
2021/10/01 02:08:36;;;;;;;2.83;1.63;;;8.30;78.80;;;;;;6154427;28;20995;-81
2021/10/01 02:11:39;;;;;;;3.27;1.87;;;8.30;78.70;;;;;;6153684;28;20974;-81
2021/10/01 02:14:44;;;;;;;4.47;1.65;;;8.20;79.00;;;;;;6154186;28;20485;-82
2021/10/01 02:17:49;;;;;;;2.58;1.52;;;8.20;78.90;;;;;;6152112;28;20573;-79
2021/10/01 02:20:56;;;;;;;1.90;1.40;;;8.20;79.10;;;;;;6153100;28;20524;-81
2021/10/01 02:23:58;;;;;;;4.53;1.87;;;8.20;78.90;;;;;;6152641;28;20520;-81
2021/10/01 02:27:07;;;;;;;3.28;2.00;;;8.20;79.20;;;;;;6152145;28;20425;-80
2021/10/01 02:30:13;;;;;;;3.37;1.90;;;8.20;78.80;;;;;;6151891;28;20513;-81
2021/10/01 02:33:23;;;;;;;1.83;1.48;;;8.10;78.60;;;;;;6152135;28;20508;-81
2021/10/01 02:36:27;;;;;;;1.77;1.33;;;8.00;78.80;;;;;;6152089;28;20473;-81
2021/10/01 02:39:28;;;;;;;3.17;1.45;;;8.00;79.00;;;;;;6151867;28;20974;-81
2021/10/01 02:42:30;;;;;;;2.70;2.08;;;7.90;79.10;;;;;;6152732;28;20526;-80
2021/10/01 02:45:32;;;;;;;1.65;1.52;;;7.90;79.30;;;;;;6152176;28;20417;-80
2021/10/01 02:48:36;;;;;;;4.10;1.90;;;7.90;79.20;;;;;;6153069;28;20485;-81
2021/10/01 02:51:45;;;;;;;1.70;1.50;;;7.90;79.10;;;;;;6152499;28;20796;-80
2021/10/01 02:54:51;;;;;;;2.83;1.60;;;7.90;79.10;;;;;;6154277;28;20840;-80
2021/10/01 02:58:00;;;;;;;2.17;1.30;;;7.90;79.00;;;;;;6159274;28;20942;-80
2021/10/01 03:01:04;;;;;;;5.35;1.95;;;7.80;79.00;;;;;;6158188;28;20473;-81
2021/10/01 03:04:10;;;;;;;2.47;1.73;;;7.90;80.10;;;;;;6157804;28;20442;-81
2021/10/01 03:07:14;;;;;;;4.15;1.98;;;7.90;79.30;;;;;;6157320;28;20430;-80
2021/10/01 03:10:16;;;;;;;5.35;2.17;;;7.80;79.00;;;;;;6156948;28;20888;-81
2021/10/01 03:13:22;;;;;;;2.55;1.95;;;7.90;78.20;;;;;;6157992;28;20499;-82
2021/10/01 03:16:26;;;;;;;2.38;2.17;;;7.80;78.80;;;;;;6158343;28;20469;-80
2021/10/01 03:19:28;;;;;;;3.40;1.75;;;7.70;79.80;;;;;;6157105;28;20422;-80
2021/10/01 03:22:32;;;;;;;2.20;1.60;;;7.70;79.00;;;;;;6157591;28;20461;-80
2021/10/01 03:25:34;;;;;;;3.15;1.75;;;7.60;79.10;;;;;;6157026;28;20417;-79
2021/10/01 03:28:37;;;;;;;2.57;1.30;;;7.50;79.50;;;;;;6158079;28;20520;-79
2021/10/01 03:31:39;;;;;;;4.80;2.00;;;7.50;79.90;;;;;;6157701;28;20509;-80
2021/10/01 03:34:41;;;;;;;2.92;1.60;;;7.40;79.80;;;;;;6157323;28;20500;-81
2021/10/01 03:37:45;;;;;;;2.90;1.60;;;7.50;79.60;;;;;;6156344;28;20954;-81
2021/10/01 03:40:48;;;;;;;4.05;2.45;;;7.50;80.00;;;;;;6157252;28;20442;-81
2021/10/01 03:43:50;;;;;;;1.80;1.60;;;7.50;79.60;;;;;;6157182;28;20512;-81
2021/10/01 03:46:52;;;;;;;6.60;2.22;;;7.50;79.60;;;;;;6156121;28;20476;-81
2021/10/01 03:49:54;;;;;;;2.33;1.80;;;7.40;79.50;;;;;;6156087;28;20928;-81
2021/10/01 03:52:57;;;;;;;5.65;2.33;;;7.40;79.80;;;;;;6155840;28;20573;-81
2021/10/01 03:55:58;;;;;;;1.95;1.40;;;7.40;80.00;;;;;;6156383;28;20516;-81
2021/10/01 03:59:00;;;;;;;2.95;1.60;;;7.30;80.00;;;;;;6155948;28;20451;-81
2021/10/01 04:02:02;;;;;;;4.05;1.95;;;7.40;80.30;;;;;;6156524;28;20422;-81
2021/10/01 04:05:05;;;;;;;3.97;2.15;;;7.40;79.70;;;;;;6156419;28;20417;-81
2021/10/01 04:08:12;;;;;;;2.63;1.92;;;7.40;79.50;;;;;;6156640;28;20452;-81
2021/10/01 04:11:14;;;;;;;3.85;2.08;;;7.40;79.80;;;;;;6156139;28;20557;-81
2021/10/01 04:14:16;;;;;;;2.60;1.45;;;7.40;80.20;;;;;;6157543;28;20477;-80
2021/10/01 04:17:19;;;;;;;4.03;1.65;;;7.50;79.70;;;;;;6157409;28;20418;-81
2021/10/01 04:20:21;;;;;;;3.33;1.60;;;7.50;79.50;;;;;;6158047;28;20940;-80
2021/10/01 04:23:24;;;;;;;8.02;1.85;;;7.50;79.50;;;;;;6157897;28;20478;-81
2021/10/01 04:26:26;;;;;;;2.17;1.70;;;7.60;79.60;;;;;;6157733;28;20465;-81
2021/10/01 04:29:28;;;;;;;4.57;2.58;;;7.50;79.50;;;;;;6158741;28;20445;-81
2021/10/01 04:32:31;;;;;;;2.33;1.27;;;7.50;79.20;;;;;;6159013;28;20445;-81
2021/10/01 04:35:33;;;;;;;2.73;1.63;;;7.50;80.10;;;;;;6158702;28;20425;-81
2021/10/01 04:38:36;;;;;;;2.78;1.75;;;7.50;79.90;;;;;;6157916;28;20844;-81
2021/10/01 04:41:41;;;;;;;3.30;2.30;;;7.40;79.60;;;;;;6165928;28;20449;-80
2021/10/01 04:44:42;;;;;;;3.20;1.67;;;7.30;79.30;;;;;;6153645;28;20449;-80
2021/10/01 04:47:44;;;;;;;2.80;2.00;;;7.30;79.30;;;;;;6153226;28;20504;-81
2021/10/01 04:50:46;;;;;;;6.30;1.85;;;7.30;79.40;;;;;;6153608;28;20481;-80
2021/10/01 04:53:49;;;;;;;1.95;1.60;;;7.20;79.60;;;;;;6153401;28;20840;-81
2021/10/01 04:56:51;;;;;;;2.38;1.95;;;7.30;80.30;;;;;;6152011;28;20524;-79
2021/10/01 04:59:53;;;;;;;4.03;2.63;;;7.30;79.60;;;;;;6151415;28;20449;-79
2021/10/01 05:02:55;;;;;;;4.57;2.53;;;7.30;79.40;;;;;;6151779;28;20456;-79
2021/10/01 05:05:57;;;;;;;3.10;2.00;;;7.30;79.00;;;;;;6151182;28;20437;-79
2021/10/01 05:09:00;;;;;;;6.63;3.85;;;7.30;79.50;;;;;;6151693;28;20469;-79
2021/10/01 05:12:02;;;;;;;3.25;2.30;;;7.30;79.00;;;;;;6152201;28;20469;-79
2021/10/01 05:15:05;;;;;;;5.75;2.10;;;7.20;78.80;;;;;;6151223;28;20504;-78
2021/10/01 05:18:07;;;;;;;3.30;1.83;;;7.20;79.30;;;;;;6150857;28;20553;-79
2021/10/01 05:21:09;;;;;;;3.30;2.45;;;7.20;78.70;;;;;;6150502;28;20469;-78
2021/10/01 05:24:14;;;;;;;4.10;2.40;;;7.20;78.70;;;;;;6151040;28;20986;-79
2021/10/01 05:27:16;;;;;;;6.10;2.30;;;7.10;79.20;;;;;;6151950;28;20416;-79
2021/10/01 05:30:18;;;;;;;2.97;2.60;;;7.10;79.20;;;;;;6151347;28;20501;-79
2021/10/01 05:33:20;;;;;;;4.80;2.95;;;7.10;78.80;;;;;;6151666;28;20484;-79
2021/10/01 05:36:21;;;;;;;4.15;2.80;;;7.10;79.00;;;;;;6152087;28;20517;-79
2021/10/01 05:39:25;;;;;;;4.95;2.28;;;7.10;79.00;;;;;;6151214;28;20505;-79
2021/10/01 05:42:26;;;;;;;5.28;2.97;;;7.10;78.80;;;;;;6151737;28;20422;-79
2021/10/01 05:45:28;;;;;;;4.82;2.63;;;7.10;79.00;;;;;;6151039;28;20418;-79
2021/10/01 05:48:32;;;;;;;4.00;2.70;;;7.10;79.00;;;;;;6151656;28;20871;-79
2021/10/01 05:51:36;;;;;;;5.53;2.97;;;7.10;79.00;;;;;;6151385;28;20512;-78
2021/10/01 05:54:40;;;;;;;5.87;2.87;;;7.10;79.00;;;;;;6150663;28;20432;-79
2021/10/01 05:57:44;;;;;;;3.70;2.08;;;7.10;79.00;;;;;;6151308;28;20456;-79
2021/10/01 06:00:47;;;;;;;9.82;3.13;;;7.10;79.10;;;;;;6152287;28;21000;-79
2021/10/01 06:03:51;;;;;;;8.05;2.78;;;7.20;80.60;;;;;;6151105;28;20930;-78
2021/10/01 06:06:52;;;;;;;7.78;2.35;;;7.30;80.80;;;;;;6152266;28;20422;-81
2021/10/01 06:09:56;;;;;;;8.65;3.33;;;7.50;80.60;;;;;;6150657;28;20924;-79
2021/10/01 06:12:57;;;;;;;5.20;2.33;;;7.60;80.00;;;;;;6151085;28;20437;-79
2021/10/01 06:15:59;;;;;;;7.83;2.10;;;7.70;79.50;;;;;;6151142;28;20570;-79
2021/10/01 06:19:02;;;;;;;4.28;1.95;;;7.80;79.30;;;;;;6150634;28;20500;-78
2021/10/01 06:22:06;;;;;;;4.43;2.72;;;7.90;78.70;;;;;;6151328;28;20926;-79
2021/10/01 06:25:10;;;;;;;4.70;2.00;;;8.10;78.90;;;;;;6150355;28;20968;-79
2021/10/01 06:28:12;;;;;;;4.75;2.00;;;8.20;78.40;;;;;;6151405;28;20472;-79
2021/10/01 06:31:14;;;;;;;4.90;2.67;;;8.30;77.90;;;;;;6149725;28;20620;-79
2021/10/01 06:34:16;;;;;;;6.43;2.50;;;8.40;78.00;;;;;;6150180;28;20505;-78
2021/10/01 06:37:18;;;;;;;4.55;2.40;;;8.50;78.20;;;;;;6150463;28;20417;-79
2021/10/01 06:40:22;;;;;;;2.55;1.98;;;8.60;78.80;;;;;;6150747;28;20789;-79
2021/10/01 06:43:23;;;;;;;5.05;2.60;;;8.70;78.40;;;;;;6150585;28;20512;-79
2021/10/01 06:46:31;;;;;;;4.97;2.90;;;8.90;78.50;;;;;;6150598;28;20440;-79
2021/10/01 06:49:40;;;;;;;5.07;2.50;;;9.10;78.00;;;;;;6150047;28;20421;-79
2021/10/01 06:53:04;;;;;;;4.22;3.08;;;9.20;78.00;;;;;;6150582;28;20532;-79
2021/10/01 07:36:45;;;;;;;2.85;1.80;;;13.70;66.20;;;;;;6195561;28;20787;-79
2021/10/01 08:19:38;;;;;;;2.90;1.90;;;17.50;54.90;;;;;;6174870;28;20420;-78
2021/10/01 08:22:40;;;;;;;3.03;1.63;;;17.70;55.40;;;;;;6195200;28;20917;-78
2021/10/01 08:25:43;;;;;;;3.17;1.70;;;17.70;53.50;;;;;;6219242;28;20445;-78
2021/10/01 08:28:45;;;;;;;3.17;1.60;;;17.80;53.60;;;;;;6223863;28;20580;-78
2021/10/01 08:31:48;;;;;;;5.10;2.53;;;18.10;53.30;;;;;;6225113;28;20521;-78
2021/10/01 08:34:52;;;;;;;4.75;1.67;;;18.30;53.70;;;;;;6223745;28;20520;-79
2021/10/01 08:37:55;;;;;;;3.10;1.42;;;18.50;51.90;;;;;;6223661;28;21078;-79
2021/10/01 08:40:58;;;;;;;3.28;1.60;;;18.50;52.50;;;;;;6224874;28;20557;-79
2021/10/01 08:44:00;;;;;;;3.42;1.40;;;18.60;51.90;;;;;;6204075;28;20441;-79
2021/10/01 08:47:05;;;;;;;5.05;1.77;;;18.70;51.40;;;;;;6200540;28;20484;-79
2021/10/01 08:50:11;;;;;;;3.55;2.47;;;18.90;51.40;;;;;;6201396;28;20460;-79
2021/10/01 08:53:14;;;;;;;3.75;3.08;;;19.00;50.90;;;;;;6204152;28;20533;-79
2021/10/01 08:56:16;;;;;;;7.57;2.60;;;19.10;50.90;;;;;;6227130;28;20433;-79
2021/10/01 08:59:18;;;;;;;3.70;1.88;;;19.20;50.30;;;;;;6225706;28;20559;-79
2021/10/01 09:02:20;;;;;;;3.03;1.73;;;19.30;50.30;;;;;;6225951;28;20511;-79
2021/10/01 09:05:23;;;;;;;4.60;1.98;;;19.50;49.40;;;;;;6225198;28;20417;-79
2021/10/01 09:08:26;;;;;;;3.67;1.80;;;19.60;49.90;;;;;;6225278;28;20526;-79
2021/10/01 09:11:30;;;;;;;5.88;2.05;;;19.90;49.10;;;;;;6224589;28;20508;-80
2021/10/01 09:14:41;;;;;;;8.55;2.28;;;20.20;48.30;;;;;;6225714;28;20416;-79
2021/10/01 09:17:48;;;;;;;6.13;1.85;;;20.20;47.20;;;;;;6226739;28;20490;-79
2021/10/01 09:21:03;;;;;;;5.00;2.08;;;20.30;47.20;;;;;;6220272;28;20574;-79
2021/10/01 09:24:09;;;;;;;6.03;2.50;;;20.40;46.40;;;;;;6214377;28;20491;-79
2021/10/01 09:27:11;;;;;;;4.45;1.70;;;20.60;45.90;;;;;;6222347;28;20563;-78
2021/10/01 09:30:16;;;;;;;3.17;1.88;;;20.70;47.40;;;;;;6223033;28;20417;-79
2021/10/01 09:33:20;;;;;;;3.30;2.20;;;21.00;45.30;;;;;;6225059;28;20447;-79
2021/10/01 09:36:25;;;;;;;11.40;2.40;;;21.20;45.80;;;;;;6226883;28;20519;-79
2021/10/01 09:39:30;;;;;;;5.25;2.40;;;21.30;45.10;;;;;;6224573;28;20488;-79
2021/10/01 09:42:39;;;;;;;5.50;2.65;;;21.30;46.10;;;;;;6223223;28;20417;-79
2021/10/01 09:45:41;;;;;;;4.73;2.80;;;21.70;45.90;;;;;;6193322;28;20418;-79
2021/10/01 09:48:43;;;;;;;4.75;2.80;;;21.90;43.80;;;;;;6200080;28;20901;-79
2021/10/01 09:51:52;;;;;;;7.35;2.55;;;22.00;44.00;;;;;;6179909;28;20954;-79
2021/10/01 09:55:05;;;;;;;5.95;2.75;;;22.10;43.90;;;;;;6190389;28;20935;-78
2021/10/01 09:58:09;;;;;;;6.00;2.50;;;22.20;44.10;;;;;;6197192;28;20415;-78
2021/10/01 10:01:11;;;;;;;5.50;1.98;;;22.40;42.70;;;;;;6197100;28;20442;-78
2021/10/01 10:04:17;;;;;;;5.93;2.42;;;22.60;42.30;;;;;;6197772;28;20589;-78
2021/10/01 10:07:22;;;;;;;4.43;2.70;;;22.60;41.80;;;;;;6197907;28;20429;-79
2021/10/01 10:10:24;;;;;;;4.95;2.13;;;22.60;41.90;;;;;;6197954;28;20430;-79
2021/10/01 10:13:44;;;;;;;3.33;2.10;;;22.70;42.20;;;;;;6198488;28;20421;-79
2021/10/01 10:16:46;;;;;;;7.03;2.25;;;22.80;41.60;;;;;;6199260;28;20441;-78
2021/10/01 10:19:50;;;;;;;5.93;2.50;;;22.90;41.60;;;;;;6197492;28;20913;-78
2021/10/01 10:22:53;;;;;;;9.27;2.92;;;23.00;42.00;;;;;;6185105;28;20499;-78
2021/10/01 10:25:55;;;;;;;6.07;2.40;;;23.10;40.90;;;;;;6196185;28;20426;-80
2021/10/01 10:29:00;;;;;;;7.40;2.47;;;23.10;41.00;;;;;;6199015;28;20484;-79
2021/10/01 10:32:02;;;;;;;6.35;2.45;;;23.10;41.00;;;;;;6199120;28;21035;-79
2021/10/01 10:35:07;;;;;;;4.80;1.73;;;23.10;41.90;;;;;;6197727;28;20496;-79
2021/10/01 10:38:33;;;;;;;4.20;2.10;;;23.10;40.70;;;;;;6197304;28;20442;-78
2021/10/01 10:41:35;;;;;;;4.00;1.90;;;23.10;41.00;;;;;;6196857;28;20421;-79
2021/10/01 10:44:43;;;;;;;4.18;2.20;;;23.20;41.10;;;;;;6187071;28;20439;-79
2021/10/01 10:48:07;;;;;;;3.25;1.80;;;23.50;39.60;;;;;;6174978;28;20442;-79
2021/10/01 10:51:09;;;;;;;2.92;1.95;;;23.60;40.40;;;;;;6153055;28;20441;-79
2021/10/01 10:54:12;;;;;;;5.82;1.95;;;23.80;40.00;;;;;;6171893;28;20511;-79
2021/10/01 10:57:30;;;;;;;3.33;1.63;;;24.00;40.10;;;;;;6172021;28;20461;-79
2021/10/01 11:00:39;;;;;;;4.00;1.80;;;24.30;39.20;;;;;;6173153;28;20444;-79
2021/10/01 11:03:41;;;;;;;3.50;1.70;;;24.30;38.00;;;;;;6173402;28;20423;-79
2021/10/01 11:06:43;;;;;;;3.90;2.35;;;24.20;39.50;;;;;;6172875;28;20423;-79
2021/10/01 11:09:46;;;;;;;2.43;1.60;;;24.30;38.30;;;;;;6172563;28;20940;-79
2021/10/01 11:12:48;;;;;;;4.78;1.48;;;24.40;37.70;;;;;;6173127;28;20536;-78
2021/10/01 11:16:26;;;;;;;3.03;1.80;;;24.50;37.50;;;;;;6173957;28;20802;-79
2021/10/01 11:19:37;;;;;;;6.50;2.10;;;24.50;37.10;;;;;;6171945;28;20417;-79
2021/10/01 11:22:42;;;;;;;6.18;1.73;;;24.30;38.10;;;;;;6174858;28;20548;-78
2021/10/01 11:25:45;;;;;;;1.67;1.33;;;24.20;38.30;;;;;;6179781;28;20428;-78
2021/10/01 11:28:47;;;;;;;3.70;1.17;;;24.20;37.60;;;;;;6176380;28;20447;-78
2021/10/01 11:31:51;;;;;;;2.93;1.60;;;24.30;38.00;;;;;;6176160;28;20440;-78
2021/10/01 11:34:55;;;;;;;4.43;1.63;;;24.70;37.60;;;;;;6176577;28;20430;-78
2021/10/01 11:37:58;;;;;;;3.23;1.40;;;25.00;37.00;;;;;;6176355;28;20558;-79
2021/10/01 11:41:10;;;;;;;3.78;1.83;;;25.10;37.00;;;;;;6175598;28;20452;-78
2021/10/01 11:44:13;;;;;;;2.35;1.38;;;25.10;36.50;;;;;;6177363;28;20446;-79
2021/10/01 11:47:15;;;;;;;5.65;1.70;;;25.30;35.80;;;;;;6153309;28;20426;-79
2021/10/01 11:50:17;;;;;;;2.28;1.00;;;25.50;34.40;;;;;;6164549;28;20910;-78
2021/10/01 11:53:22;;;;;;;1.40;1.17;;;25.60;33.50;;;;;;6182813;28;20981;-79
2021/10/01 11:56:25;;;;;;;1.47;0.97;;;25.50;34.10;;;;;;6224217;28;20428;-79
2021/10/01 11:59:48;;;;;;;2.33;1.30;;;25.50;34.40;;;;;;6224292;28;20460;-79
2021/10/01 12:02:52;;;;;;;2.50;1.52;;;25.40;34.20;;;;;;6223714;28;20416;-79
2021/10/01 12:05:55;;;;;;;3.92;1.40;;;25.30;34.30;;;;;;6224210;28;20417;-79
2021/10/01 12:08:59;;;;;;;3.50;1.42;;;25.20;34.80;;;;;;6224193;28;20480;-79
2021/10/01 12:12:10;;;;;;;2.47;1.20;;;25.30;36.00;;;;;;6225051;28;20527;-80
2021/10/01 12:15:11;;;;;;;2.47;0.98;;;25.70;34.70;;;;;;6223979;28;21168;-79
2021/10/01 12:18:37;;;;;;;2.53;1.27;;;26.10;34.20;;;;;;6223044;28;20514;-79
2021/10/01 12:21:39;;;;;;;1.85;1.00;;;26.40;34.50;;;;;;6220598;28;20482;-79
2021/10/01 12:24:42;;;;;;;2.90;1.30;;;26.50;34.00;;;;;;6207063;28;21005;-79
2021/10/01 12:27:49;;;;;;;2.88;1.33;;;26.60;33.70;;;;;;6175353;28;20510;-78
2021/10/01 12:31:02;;;;;;;3.35;1.15;;;26.90;33.30;;;;;;6192339;28;20437;-80
2021/10/01 12:34:05;;;;;;;2.95;0.90;;;27.00;33.50;;;;;;6199046;28;20422;-79
2021/10/01 12:37:09;;;;;;;2.42;1.40;;;26.80;33.70;;;;;;6200244;28;20414;-79
2021/10/01 12:40:13;;;;;;;2.53;1.25;;;26.10;35.40;;;;;;6199801;28;20803;-79
2021/10/01 12:43:16;;;;;;;2.13;1.27;;;25.80;35.10;;;;;;6199626;28;21059;-79
2021/10/01 12:46:42;;;;;;;4.82;1.45;;;26.10;35.30;;;;;;6198122;28;20422;-79
2021/10/01 12:49:56;;;;;;;3.72;1.20;;;26.50;35.40;;;;;;6174416;28;20455;-79
2021/10/01 12:52:59;;;;;;;2.90;1.30;;;26.80;35.00;;;;;;6197726;28;20446;-79
2021/10/01 12:56:15;;;;;;;2.60;1.10;;;27.00;34.40;;;;;;6223812;28;20433;-79
2021/10/01 12:59:44;;;;;;;6.27;1.60;;;27.10;33.80;;;;;;6223827;28;20424;-79
2021/10/01 13:02:48;;;;;;;2.80;1.25;;;27.30;33.10;;;;;;6223371;28;20442;-79
2021/10/01 13:05:50;;;;;;;2.47;1.33;;;27.30;34.10;;;;;;6223542;28;20441;-80
2021/10/01 13:08:52;;;;;;;2.42;1.33;;;27.40;33.50;;;;;;6224549;28;20459;-79
2021/10/01 13:11:53;;;;;;;2.55;1.45;;;27.50;33.10;;;;;;6224281;28;20949;-79
2021/10/01 13:15:21;;;;;;;1.65;0.93;;;27.80;33.90;;;;;;6224108;28;20478;-79
2021/10/01 13:18:27;;;;;;;4.65;1.40;;;27.60;33.20;;;;;;6223479;28;20459;-79
2021/10/01 13:21:29;;;;;;;2.40;1.20;;;27.60;33.20;;;;;;6213474;28;20433;-79
2021/10/01 13:24:31;;;;;;;3.00;1.33;;;27.80;33.10;;;;;;6212089;28;20505;-79
2021/10/01 13:27:33;;;;;;;6.38;1.30;;;28.00;33.30;;;;;;6198507;28;20422;-79
2021/10/01 13:30:37;;;;;;;4.50;1.55;;;27.90;32.90;;;;;;6199519;28;20489;-79
2021/10/01 13:33:39;;;;;;;3.92;1.15;;;28.00;33.20;;;;;;6199699;28;20450;-79
2021/10/01 13:36:42;;;;;;;3.42;1.30;;;28.10;32.70;;;;;;6199045;28;20525;-79
2021/10/01 13:39:44;;;;;;;3.78;1.40;;;28.10;32.90;;;;;;6198685;28;20867;-78
2021/10/01 13:42:47;;;;;;;2.13;1.20;;;27.90;32.90;;;;;;6198140;28;20477;-80
2021/10/01 13:45:50;;;;;;;3.10;1.45;;;27.70;32.80;;;;;;6197148;28;20512;-79
2021/10/01 13:48:53;;;;;;;4.07;1.33;;;27.80;32.50;;;;;;6196057;28;20439;-79
2021/10/01 13:51:55;;;;;;;2.78;1.30;;;27.80;33.00;;;;;;6191750;28;20493;-79
2021/10/01 13:54:57;;;;;;;3.83;1.50;;;27.80;33.40;;;;;;6205626;28;20422;-79
2021/10/01 13:57:59;;;;;;;2.97;1.25;;;27.60;33.60;;;;;;6197867;28;20524;-79
2021/10/01 14:01:03;;;;;;;3.92;1.48;;;27.60;33.20;;;;;;6198263;28;20473;-80
2021/10/01 14:04:05;;;;;;;4.20;1.50;;;27.50;34.10;;;;;;6197985;28;20585;-79
2021/10/01 14:07:07;;;;;;;5.60;1.45;;;27.40;35.10;;;;;;6197446;28;20445;-79
2021/10/01 14:10:11;;;;;;;6.57;1.70;;;27.30;34.50;;;;;;6197110;28;20586;-79
2021/10/01 14:13:14;;;;;;;3.33;1.40;;;27.20;35.10;;;;;;6196851;28;20480;-79
2021/10/01 14:16:17;;;;;;;3.87;1.57;;;27.10;35.60;;;;;;6197706;28;20441;-79
2021/10/01 14:19:19;;;;;;;3.60;1.63;;;26.90;36.20;;;;;;6196559;28;20446;-79
2021/10/01 14:22:21;;;;;;;2.50;1.00;;;26.90;35.90;;;;;;6191905;28;20489;-80
2021/10/01 14:25:24;;;;;;;4.18;1.42;;;26.80;36.40;;;;;;6203077;28;20422;-80
2021/10/01 14:28:26;;;;;;;4.63;1.23;;;26.70;36.40;;;;;;6198028;28;20527;-79
2021/10/01 14:31:30;;;;;;;6.70;1.50;;;26.50;36.80;;;;;;6197483;28;20962;-80
2021/10/01 14:34:32;;;;;;;2.10;1.15;;;26.40;36.80;;;;;;6197635;28;20418;-79
2021/10/01 14:37:36;;;;;;;5.32;1.65;;;26.30;36.50;;;;;;6197121;28;20414;-80
2021/10/01 14:40:39;;;;;;;2.90;1.55;;;26.20;37.00;;;;;;6196612;28;20508;-80
2021/10/01 14:43:42;;;;;;;3.58;1.42;;;26.20;37.30;;;;;;6196827;28;20418;-80
2021/10/01 14:46:46;;;;;;;3.78;1.40;;;26.30;36.90;;;;;;6197063;28;20497;-79
2021/10/01 14:49:48;;;;;;;3.15;1.60;;;26.50;36.70;;;;;;6195998;28;20429;-80
2021/10/01 14:52:50;;;;;;;5.05;1.35;;;26.50;36.80;;;;;;6200548;28;20865;-79
2021/10/01 14:55:52;;;;;;;2.83;1.50;;;26.70;36.30;;;;;;6204316;28;20852;-78
2021/10/01 14:58:54;;;;;;;6.05;1.65;;;26.80;35.90;;;;;;6201626;28;20484;-78
2021/10/01 15:01:57;;;;;;;2.22;1.70;;;27.00;35.80;;;;;;6200980;28;20565;-78
2021/10/01 15:04:59;;;;;;;4.47;1.92;;;27.10;35.90;;;;;;6201653;28;20542;-80
2021/10/01 15:08:01;;;;;;;3.10;1.27;;;27.10;35.20;;;;;;6203145;28;20477;-79
2021/10/01 15:11:03;;;;;;;3.88;1.30;;;26.90;35.80;;;;;;6201329;28;20552;-80
2021/10/01 15:14:05;;;;;;;2.95;1.85;;;26.60;36.00;;;;;;6201474;28;20414;-80
2021/10/01 15:17:08;;;;;;;10.23;1.80;;;26.20;37.00;;;;;;6201018;28;20470;-79
2021/10/01 15:20:11;;;;;;;2.95;1.30;;;25.60;38.80;;;;;;6201312;28;20924;-79
2021/10/01 15:23:14;;;;;;;2.17;1.50;;;25.00;38.80;;;;;;6202657;28;20790;-79
2021/10/01 15:26:16;;;;;;;2.22;1.35;;;24.60;40.00;;;;;;6201236;28;20502;-79
2021/10/01 15:29:18;;;;;;;5.60;1.52;;;24.30;42.20;;;;;;6200933;28;20407;-80
2021/10/01 15:32:21;;;;;;;3.92;1.60;;;24.10;43.00;;;;;;6201820;28;20449;-79
2021/10/01 15:35:24;;;;;;;7.93;2.05;;;23.70;44.00;;;;;;6200575;28;20441;-79
2021/10/01 15:38:26;;;;;;;3.83;2.05;;;23.50;46.60;;;;;;6201336;28;21035;-79
2021/10/01 15:41:28;;;;;;;6.97;1.40;;;23.40;46.40;;;;;;6200178;28;21047;-79
2021/10/01 15:44:32;;;;;;;4.03;1.92;;;23.30;48.10;;;;;;6201059;28;20924;-79
2021/10/01 15:47:36;;;;;;;4.57;2.17;;;23.20;48.50;;;;;;6199957;28;20928;-79
2021/10/01 15:50:38;;;;;;;2.55;1.17;;;23.10;49.50;;;;;;6181530;28;20482;-79
2021/10/01 15:53:41;;;;;;;3.83;1.40;;;22.90;50.10;;;;;;6207805;28;20504;-79
2021/10/01 15:56:43;;;;;;;4.28;2.13;;;22.80;51.10;;;;;;6225502;28;20539;-78
2021/10/01 15:59:45;;;;;;;4.90;1.80;;;22.60;51.90;;;;;;6223453;28;20568;-79
2021/10/01 16:02:48;;;;;;;5.47;1.67;;;22.40;52.90;;;;;;6222201;28;20500;-78
2021/10/01 16:05:59;;;;;;;4.20;1.33;;;22.20;54.20;;;;;;6222618;28;20470;-79
2021/10/01 16:09:01;;;;;;;3.63;1.70;;;21.90;54.90;;;;;;6222215;28;20911;-78
2021/10/01 16:12:03;;;;;;;4.13;1.50;;;21.70;55.20;;;;;;6223726;28;20514;-78
2021/10/01 16:15:07;;;;;;;3.47;1.60;;;21.50;56.60;;;;;;6223238;28;20914;-79
2021/10/01 16:18:10;;;;;;;4.10;1.60;;;21.30;57.50;;;;;;6222978;28;20497;-78
2021/10/01 16:21:13;;;;;;;2.97;1.90;;;21.10;58.50;;;;;;6208046;28;20503;-77
2021/10/01 16:24:15;;;;;;;3.15;1.35;;;20.80;59.50;;;;;;6214354;28;20794;-78
2021/10/01 16:27:20;;;;;;;3.93;1.83;;;20.60;60.20;;;;;;6225818;28;21048;-78
2021/10/01 16:30:24;;;;;;;3.70;2.00;;;20.40;61.40;;;;;;6222226;28;20448;-78
2021/10/01 16:33:27;;;;;;;4.70;2.28;;;20.20;62.30;;;;;;6221711;28;20496;-76
2021/10/01 16:36:29;;;;;;;2.30;1.63;;;19.90;63.20;;;;;;6222775;28;20436;-77
2021/10/01 16:39:31;;;;;;;4.32;2.63;;;19.70;64.10;;;;;;6221456;28;20412;-78
2021/10/01 16:42:34;;;;;;;3.30;2.00;;;19.60;64.80;;;;;;6221753;28;20413;-77
2021/10/01 16:45:35;;;;;;;4.75;1.83;;;19.40;65.70;;;;;;6222118;28;20547;-76
2021/10/01 16:48:39;;;;;;;3.90;1.92;;;19.30;66.30;;;;;;6221995;28;20436;-78
2021/10/01 16:51:42;;;;;;;3.60;2.05;;;19.20;66.80;;;;;;6196204;28;20563;-78
2021/10/01 16:54:44;;;;;;;5.03;2.03;;;19.00;67.30;;;;;;6204945;28;20912;-77
2021/10/01 16:57:46;;;;;;;2.70;1.50;;;18.80;68.90;;;;;;6197429;28;20423;-77
2021/10/01 17:00:48;;;;;;;3.70;2.00;;;18.60;69.50;;;;;;6197663;28;20445;-80
2021/10/01 17:03:51;;;;;;;6.15;1.80;;;18.50;69.80;;;;;;6203106;28;20442;-80
2021/10/01 17:06:53;;;;;;;5.93;2.47;;;18.40;70.10;;;;;;6235728;23;20440;-80
2021/10/01 17:09:54;;;;;;;3.15;1.85;;;18.30;70.80;;;;;;6226087;28;20424;-81
2021/10/01 17:12:57;;;;;;;3.37;2.00;;;18.10;71.00;;;;;;6225540;28;20934;-80
2021/10/01 17:15:58;;;;;;;4.55;1.95;;;18.00;71.20;;;;;;6226565;28;20565;-80
2021/10/01 17:19:02;;;;;;;4.65;1.98;;;17.80;72.10;;;;;;6225966;28;21214;-79
2021/10/01 17:22:04;;;;;;;4.22;2.13;;;17.70;72.70;;;;;;6218484;28;21084;-80
2021/10/01 17:25:08;;;;;;;3.75;1.98;;;17.60;73.10;;;;;;6217019;28;20465;-81